createdAt,value
2019-05-14T00:01:22.127Z,14.95
2019-05-14T00:03:51.633Z,15.19
2019-05-14T00:06:21.888Z,14.75
2019-05-14T00:08:52.214Z,14.63
2019-05-14T00:11:21.944Z,14.83
2019-05-14T00:13:51.993Z,14.88
2019-05-14T00:16:24.103Z,14.90
2019-05-14T00:18:51.650Z,14.70
2019-05-14T00:21:21.145Z,14.79
2019-05-14T00:23:51.427Z,14.75
2019-05-14T00:26:21.499Z,14.82
2019-05-14T00:28:51.193Z,15.03
2019-05-14T00:31:21.324Z,14.49
2019-05-14T00:33:51.270Z,14.24
2019-05-14T00:36:21.541Z,14.43
2019-05-14T00:38:51.301Z,14.83
2019-05-14T00:41:21.459Z,14.75
2019-05-14T00:43:51.346Z,14.41
2019-05-14T00:46:21.180Z,14.51
2019-05-14T00:48:51.481Z,14.35
2019-05-14T00:51:21.528Z,14.38
2019-05-14T00:53:51.627Z,14.32
2019-05-14T00:56:21.651Z,14.23
2019-05-14T00:58:52.203Z,14.49
2019-05-14T01:01:21.547Z,14.46
2019-05-14T01:03:52.098Z,14.37
2019-05-14T01:06:21.873Z,14.55
2019-05-14T01:08:51.896Z,14.68
2019-05-14T01:11:22.122Z,14.52
2019-05-14T01:13:52.234Z,14.59
2019-05-14T01:16:22.411Z,14.38
2019-05-14T01:18:51.350Z,14.37
2019-05-14T01:21:21.983Z,14.43
2019-05-14T01:23:51.374Z,14.51
2019-05-14T01:26:21.760Z,14.62
2019-05-14T01:28:51.419Z,14.80
2019-05-14T01:31:21.876Z,14.65
2019-05-14T01:33:51.554Z,14.47
2019-05-14T01:36:21.497Z,14.51
2019-05-14T01:38:51.315Z,14.34
2019-05-14T01:41:22.175Z,14.33
2019-05-14T01:43:51.317Z,14.25
2019-05-14T01:46:21.081Z,14.33
2019-05-14T01:48:51.967Z,14.31
2019-05-14T01:51:22.340Z,14.32
2019-05-14T01:53:52.088Z,14.35
2019-05-14T01:56:21.411Z,14.36
2019-05-14T01:58:52.199Z,14.49
2019-05-14T02:01:21.838Z,14.38
2019-05-14T02:03:51.825Z,14.45
2019-05-14T02:06:21.265Z,14.23
2019-05-14T02:08:51.492Z,14.08
2019-05-14T02:11:21.461Z,14.27
2019-05-14T02:13:51.940Z,14.41
2019-05-14T02:16:21.913Z,14.31
2019-05-14T02:18:52.194Z,14.29
2019-05-14T02:21:22.896Z,14.13
2019-05-14T02:23:51.527Z,14.16
2019-05-14T02:26:22.058Z,14.03
2019-05-14T02:28:51.359Z,14.23
2019-05-14T02:31:20.553Z,14.20
2019-05-14T02:33:50.464Z,14.46
2019-05-14T02:36:19.752Z,14.02
2019-05-14T02:38:49.343Z,14.01
2019-05-14T02:41:19.623Z,14.01
2019-05-14T02:43:50.234Z,14.00
2019-05-14T02:46:40.472Z,14.15
2019-05-14T02:49:10.471Z,14.15
2019-05-14T02:51:39.268Z,14.07
2019-05-14T02:54:10.032Z,14.15
2019-05-14T02:56:40.231Z,14.13
2019-05-14T02:59:09.737Z,13.97
2019-05-14T03:01:40.618Z,13.99
2019-05-14T03:04:09.401Z,14.03
2019-05-14T03:06:39.453Z,14.03
2019-05-14T03:09:09.620Z,13.91
2019-05-14T03:11:40.379Z,13.99
2019-05-14T03:14:09.345Z,14.05
2019-05-14T03:16:40.295Z,14.03
2019-05-14T03:19:09.975Z,14.11
2019-05-14T03:21:39.508Z,14.20
2019-05-14T03:24:09.587Z,14.27
2019-05-14T03:26:39.823Z,14.18
2019-05-14T03:29:09.896Z,14.01
2019-05-14T03:31:42.801Z,13.89
2019-05-14T03:34:13.428Z,14.06
2019-05-14T03:36:43.006Z,14.16
2019-05-14T03:39:10.839Z,14.05
2019-05-14T03:41:40.099Z,14.09
2019-05-14T03:44:09.964Z,14.25
2019-05-14T03:46:48.936Z,13.97
2019-05-14T03:49:09.615Z,14.13
2019-05-14T03:51:39.425Z,14.30
2019-05-14T03:54:12.452Z,14.20
2019-05-14T03:56:39.610Z,14.02
2019-05-14T03:59:09.683Z,14.33
2019-05-14T04:01:40.117Z,13.96
2019-05-14T04:04:10.334Z,13.98
2019-05-14T04:06:41.868Z,14.13
2019-05-14T04:09:12.943Z,14.07
2019-05-14T04:11:43.567Z,14.33
2019-05-14T04:14:15.163Z,14.21
2019-05-14T04:17:01.479Z,14.14
2019-05-14T04:19:19.423Z,13.93
2019-05-14T04:21:49.307Z,14.24
2019-05-14T04:24:20.795Z,14.27
2019-05-14T04:27:02.248Z,14.35
2019-05-14T04:29:22.459Z,14.04
2019-05-14T04:31:53.089Z,14.13
2019-05-14T04:34:21.677Z,14.16
2019-05-14T04:36:50.693Z,14.02
2019-05-14T04:39:19.707Z,14.05
2019-05-14T04:41:49.790Z,14.11
2019-05-14T04:44:19.361Z,14.03
2019-05-14T04:46:49.440Z,13.84
2019-05-14T04:49:19.903Z,13.98
2019-05-14T04:51:50.194Z,14.19
2019-05-14T04:54:19.535Z,14.26
2019-05-14T04:56:50.677Z,14.15
2019-05-14T04:59:19.244Z,14.20
2019-05-14T05:01:49.375Z,14.22
2019-05-14T05:04:20.241Z,14.24
2019-05-14T05:06:49.838Z,14.19
2019-05-14T05:09:20.070Z,14.12
2019-05-14T05:11:49.760Z,14.29
2019-05-14T05:14:19.228Z,14.40
2019-05-14T05:16:48.999Z,14.24
2019-05-14T05:19:19.663Z,14.14
2019-05-14T05:21:48.165Z,14.18
2019-05-14T05:24:18.401Z,14.29
2019-05-14T05:26:48.568Z,14.25
2019-05-14T05:29:18.623Z,14.07
2019-05-14T05:31:48.737Z,14.14
2019-05-14T05:34:19.203Z,14.34
2019-05-14T05:36:48.639Z,14.37
2019-05-14T05:39:18.952Z,14.46
2019-05-14T05:41:49.198Z,14.41
2019-05-14T05:44:18.799Z,14.22
2019-05-14T05:46:49.378Z,14.18
2019-05-14T05:49:38.169Z,14.39
2019-05-14T05:52:08.531Z,14.28
2019-05-14T05:54:38.393Z,14.09
2019-05-14T05:57:09.320Z,14.12
2019-05-14T05:59:39.253Z,14.27
2019-05-14T06:02:09.331Z,14.35
2019-05-14T06:04:39.300Z,14.22
2019-05-14T06:07:08.869Z,14.26
2019-05-14T06:09:38.261Z,14.15
2019-05-14T06:12:08.660Z,14.38
2019-05-14T06:14:38.200Z,14.50
2019-05-14T06:17:08.597Z,14.22
2019-05-14T06:19:38.180Z,14.32
2019-05-14T06:22:09.558Z,14.35
2019-05-14T06:24:39.022Z,14.32
2019-05-14T06:27:09.394Z,14.39
2019-05-14T06:29:38.455Z,14.35
2019-05-14T06:32:09.337Z,14.37
2019-05-14T06:34:38.232Z,14.21
2019-05-14T06:37:08.349Z,14.28
2019-05-14T06:39:39.076Z,14.16
2019-05-14T06:42:08.813Z,14.36
2019-05-14T06:44:38.561Z,14.30
2019-05-14T06:47:09.252Z,14.31
2019-05-14T06:49:38.513Z,14.16
2019-05-14T06:52:08.679Z,14.38
2019-05-14T06:54:38.645Z,14.36
2019-05-14T06:57:08.840Z,14.40
2019-05-14T06:59:38.160Z,14.42
2019-05-14T07:02:08.679Z,14.28
2019-05-14T07:04:39.416Z,14.36
2019-05-14T07:07:08.547Z,14.40
2019-05-14T07:09:38.450Z,14.56
2019-05-14T07:12:09.138Z,14.71
2019-05-14T07:14:38.803Z,14.46
2019-05-14T07:17:09.081Z,14.53
2019-05-14T07:19:38.522Z,14.46
2019-05-14T07:22:08.939Z,14.48
2019-05-14T07:24:40.422Z,14.52
2019-05-14T07:27:09.402Z,14.50
2019-05-14T07:29:38.894Z,14.54
2019-05-14T07:32:08.933Z,14.65
2019-05-14T07:34:38.802Z,14.43
2019-05-14T07:37:09.340Z,14.43
2019-05-14T07:39:38.636Z,14.41
2019-05-14T07:42:09.767Z,14.43
2019-05-14T07:44:39.024Z,14.54
2019-05-14T07:47:08.294Z,14.59
2019-05-14T07:49:38.612Z,14.53
2019-05-14T07:52:09.462Z,14.35
2019-05-14T07:54:38.925Z,14.57
2019-05-14T07:57:08.756Z,14.60
2019-05-14T07:59:38.086Z,14.60
2019-05-14T08:02:09.161Z,14.55
2019-05-14T08:04:38.089Z,14.64
2019-05-14T08:07:08.909Z,14.74
2019-05-14T08:09:38.970Z,14.67
2019-05-14T08:12:09.326Z,14.51
2019-05-14T08:14:45.592Z,14.47
2019-05-14T08:17:08.974Z,14.48
2019-05-14T08:19:38.565Z,14.39
2019-05-14T08:22:09.495Z,14.51
2019-05-14T08:24:38.511Z,14.67
2019-05-14T08:27:08.589Z,14.81
2019-05-14T08:29:39.938Z,14.72
2019-05-14T08:32:08.772Z,14.89
2019-05-14T08:34:39.010Z,14.98
2019-05-14T08:37:08.398Z,14.77
2019-05-14T08:39:39.237Z,14.80
2019-05-14T08:42:08.483Z,15.00
2019-05-14T08:44:38.996Z,15.26
2019-05-14T08:47:09.624Z,15.84
2019-05-14T08:49:45.965Z,15.87
2019-05-14T08:52:09.120Z,15.91
2019-05-14T08:54:39.097Z,15.78
2019-05-14T08:57:09.852Z,15.89
2019-05-14T08:59:39.643Z,15.91
2019-05-14T09:02:10.643Z,15.83
2019-05-14T09:04:42.774Z,15.90
2019-05-14T09:07:09.673Z,15.92
2019-05-14T09:09:38.437Z,15.93
2019-05-14T09:12:12.340Z,15.90
2019-05-14T09:14:38.826Z,15.83
2019-05-14T09:17:09.898Z,15.93
2019-05-14T09:19:39.478Z,15.77
2019-05-14T09:22:09.624Z,15.98
2019-05-14T09:24:38.855Z,16.23
2019-05-14T09:27:08.411Z,16.28
2019-05-14T09:29:39.618Z,16.21
2019-05-14T09:32:09.573Z,16.20
2019-05-14T09:34:39.320Z,16.29
2019-05-14T09:37:08.746Z,16.42
2019-05-14T09:39:38.539Z,16.52
2019-05-14T09:42:08.135Z,16.43
2019-05-14T09:44:38.632Z,16.51
2019-05-14T09:47:08.446Z,16.68
2019-05-14T09:49:38.864Z,16.83
2019-05-14T09:52:09.034Z,16.84
2019-05-14T09:54:41.428Z,16.96
2019-05-14T09:57:08.536Z,16.85
2019-05-14T09:59:38.512Z,16.93
2019-05-14T10:02:09.130Z,16.88
2019-05-14T10:04:39.186Z,16.71
2019-05-14T10:07:08.753Z,16.84
2019-05-14T10:09:39.079Z,16.69
2019-05-14T10:12:08.989Z,16.67
2019-05-14T10:14:39.338Z,16.67
2019-05-14T10:17:08.969Z,16.76
2019-05-14T10:19:39.271Z,16.91
2019-05-14T10:22:08.424Z,16.96
2019-05-14T10:24:38.633Z,16.79
2019-05-14T10:27:08.994Z,16.83
2019-05-14T10:29:39.465Z,16.93
2019-05-14T10:32:08.824Z,17.05
2019-05-14T10:34:37.544Z,17.10
2019-05-14T10:37:08.352Z,17.22
2019-05-14T10:39:38.896Z,17.40
2019-05-14T10:42:08.917Z,17.43
2019-05-14T10:44:38.802Z,17.41
2019-05-14T10:47:09.207Z,17.38
2019-05-14T10:49:38.809Z,17.41
2019-05-14T10:52:08.278Z,17.43
2019-05-14T10:54:40.287Z,17.46
2019-05-14T10:57:09.666Z,17.48
2019-05-14T10:59:37.956Z,17.52
2019-05-14T11:02:11.668Z,17.44
2019-05-14T11:04:38.981Z,17.49
2019-05-14T11:07:07.450Z,17.55
2019-05-14T11:09:38.124Z,17.55
2019-05-14T11:12:08.807Z,17.65
2019-05-14T11:14:38.702Z,17.54
2019-05-14T11:17:11.593Z,17.63
2019-05-14T11:19:38.969Z,17.68
2019-05-14T11:22:08.481Z,17.70
2019-05-14T11:24:38.589Z,17.62
2019-05-14T11:27:07.711Z,17.71
2019-05-14T11:29:38.493Z,17.72
2019-05-14T11:32:09.766Z,17.62
2019-05-14T11:34:39.125Z,17.61
2019-05-14T11:37:08.515Z,17.73
2019-05-14T11:39:38.023Z,17.71
2019-05-14T11:42:08.547Z,17.68
2019-05-14T11:44:38.217Z,17.72
2019-05-14T11:47:09.073Z,17.82
2019-05-14T11:49:37.773Z,17.74
2019-05-14T11:52:08.702Z,17.73
2019-05-14T11:54:40.982Z,17.69
2019-05-14T11:57:11.610Z,17.68
2019-05-14T11:59:39.109Z,17.67
2019-05-14T12:02:09.628Z,17.70
2019-05-14T12:04:39.149Z,17.80
2019-05-14T12:07:09.691Z,17.79
2019-05-14T12:09:39.268Z,17.84
2019-05-14T12:12:12.570Z,17.92
2019-05-14T12:14:38.841Z,17.86
2019-05-14T12:17:09.438Z,17.90
2019-05-14T12:19:39.407Z,18.00
2019-05-14T12:22:11.514Z,18.02
2019-05-14T12:24:38.950Z,17.93
2019-05-14T12:27:08.858Z,18.03
2019-05-14T12:29:39.816Z,17.97
2019-05-14T12:32:12.524Z,18.00
2019-05-14T12:34:38.992Z,18.05
2019-05-14T12:37:09.115Z,17.91
2019-05-14T12:39:37.854Z,18.01
2019-05-14T12:42:10.108Z,18.08
2019-05-14T12:44:40.593Z,18.13
2019-05-14T12:47:09.416Z,18.12
2019-05-14T12:49:38.879Z,18.05
2019-05-14T12:52:21.047Z,18.00
2019-05-14T12:54:38.911Z,17.97
2019-05-14T12:57:08.124Z,18.10
2019-05-14T12:59:38.173Z,18.17
2019-05-14T13:02:09.655Z,18.25
2019-05-14T13:04:37.580Z,18.29
2019-05-14T13:07:09.036Z,18.22
2019-05-14T13:09:38.488Z,18.25
2019-05-14T13:12:11.218Z,18.38
2019-05-14T13:14:39.417Z,18.39
2019-05-14T13:17:09.266Z,18.41
2019-05-14T13:19:38.163Z,18.63
2019-05-14T13:22:13.691Z,18.83
2019-05-14T13:24:39.393Z,18.91
2019-05-14T13:27:09.508Z,18.98
2019-05-14T13:29:38.296Z,19.16
2019-05-14T13:32:11.989Z,19.09
2019-05-14T13:34:39.570Z,19.09
2019-05-14T13:37:07.825Z,19.05
2019-05-14T13:39:39.620Z,19.04
2019-05-14T13:42:11.704Z,19.04
2019-05-14T13:44:38.527Z,18.88
2019-05-14T13:47:09.239Z,18.70
2019-05-14T13:49:39.083Z,18.66
2019-05-14T13:52:09.297Z,18.67
2019-05-14T13:54:39.384Z,18.76
2019-05-14T13:57:11.571Z,18.81
2019-05-14T13:59:43.922Z,18.87
2019-05-14T14:02:10.096Z,18.84
2019-05-14T14:04:39.370Z,18.83
2019-05-14T14:07:09.098Z,18.93
2019-05-14T14:09:39.590Z,18.89
2019-05-14T14:12:08.350Z,18.90
2019-05-14T14:14:38.640Z,18.87
2019-05-14T14:17:07.466Z,18.90
2019-05-14T14:19:36.105Z,18.95
2019-05-14T14:22:04.709Z,19.00
2019-05-14T14:24:33.424Z,19.38
2019-05-14T14:27:02.139Z,19.43
2019-05-14T14:29:30.847Z,19.19
2019-05-14T14:31:59.480Z,19.03
2019-05-14T14:34:29.006Z,18.97
2019-05-14T14:36:59.275Z,18.91
2019-05-14T14:39:28.643Z,18.78
2019-05-14T14:41:58.538Z,18.78
2019-05-14T14:44:29.155Z,18.81
2019-05-14T14:46:57.879Z,18.77
2019-05-14T14:49:28.116Z,18.73
2019-05-14T14:51:58.960Z,18.78
2019-05-14T14:54:29.009Z,18.72
2019-05-14T14:56:59.249Z,18.81
2019-05-14T14:59:30.411Z,18.79
2019-05-14T15:01:59.723Z,18.84
2019-05-14T15:04:28.408Z,18.96
2019-05-14T15:06:59.766Z,19.27
2019-05-14T15:09:27.404Z,19.43
2019-05-14T15:11:55.913Z,19.71
2019-05-14T15:14:24.550Z,19.74
2019-05-14T15:16:53.173Z,19.82
2019-05-14T15:19:21.673Z,19.51
2019-05-14T15:21:50.311Z,19.28
2019-05-14T15:24:19.779Z,19.50
2019-05-14T15:26:48.563Z,19.38
2019-05-14T15:29:18.664Z,19.49
2019-05-14T15:31:48.495Z,19.56
2019-05-14T15:34:18.886Z,19.58
2019-05-14T15:36:49.300Z,19.76
2019-05-14T15:39:22.332Z,19.41
2019-05-14T15:41:49.824Z,19.19
2019-05-14T15:44:21.637Z,19.45
2019-05-14T15:46:50.246Z,19.17
2019-05-14T15:49:19.258Z,19.14
2019-05-14T15:51:47.947Z,18.91
2019-05-14T15:54:36.211Z,18.86
2019-05-14T15:56:49.193Z,18.86
2019-05-14T15:59:19.252Z,18.84
2019-05-14T16:01:47.772Z,18.86
2019-05-14T16:04:16.362Z,18.83
2019-05-14T16:06:44.966Z,18.86
2019-05-14T16:09:14.273Z,18.94
2019-05-14T16:11:42.674Z,18.73
2019-05-14T16:14:11.263Z,18.60
2019-05-14T16:16:39.738Z,18.55
2019-05-14T16:19:08.533Z,18.52
2019-05-14T16:21:38.613Z,18.56
2019-05-14T16:24:08.271Z,18.44
2019-05-14T16:26:37.407Z,18.50
2019-05-14T16:29:08.673Z,18.35
2019-05-14T16:31:42.885Z,18.34
2019-05-14T16:34:09.825Z,18.42
2019-05-14T16:36:41.349Z,18.40
2019-05-14T16:39:09.711Z,18.44
2019-05-14T16:41:39.115Z,18.18
2019-05-14T16:44:09.057Z,18.28
2019-05-14T16:46:38.486Z,18.33
2019-05-14T16:49:08.894Z,18.28
2019-05-14T16:51:37.621Z,18.13
2019-05-14T16:54:06.203Z,18.27
2019-05-14T16:56:34.918Z,18.13
2019-05-14T16:59:03.553Z,18.16
2019-05-14T17:01:33.654Z,18.10
2019-05-14T17:04:02.486Z,17.98
2019-05-14T17:06:34.539Z,17.97
2019-05-14T17:09:01.578Z,17.96
2019-05-14T17:11:30.145Z,17.95
2019-05-14T17:13:58.740Z,17.88
2019-05-14T17:16:28.918Z,17.80
2019-05-14T17:18:59.148Z,17.86
2019-05-14T17:21:27.968Z,17.83
2019-05-14T17:23:58.102Z,17.89
2019-05-14T17:26:28.722Z,17.75
2019-05-14T17:28:59.666Z,17.78
2019-05-14T17:31:30.951Z,17.62
2019-05-14T17:33:58.668Z,17.65
2019-05-14T17:36:28.259Z,17.66
2019-05-14T17:38:58.627Z,17.52
2019-05-14T17:41:27.925Z,17.40
2019-05-14T17:43:58.566Z,17.47
2019-05-14T17:46:29.018Z,17.27
2019-05-14T17:48:59.158Z,17.40
2019-05-14T17:51:28.433Z,17.24
2019-05-14T17:53:58.709Z,17.31
2019-05-14T17:56:28.356Z,17.24
2019-05-14T17:58:58.038Z,17.13
2019-05-14T18:01:28.990Z,17.08
2019-05-14T18:03:58.425Z,17.06
2019-05-14T18:06:28.552Z,17.05
2019-05-14T18:08:58.363Z,17.15
2019-05-14T18:11:28.439Z,17.16
2019-05-14T18:13:58.942Z,17.22
2019-05-14T18:16:28.514Z,17.17
2019-05-14T18:18:58.297Z,17.11
2019-05-14T18:21:28.487Z,17.21
2019-05-14T18:23:58.566Z,17.07
2019-05-14T18:26:29.067Z,17.06
2019-05-14T18:28:58.160Z,16.90
2019-05-14T18:31:26.921Z,16.93
2019-05-14T18:33:55.403Z,16.91
2019-05-14T18:36:23.900Z,16.86
2019-05-14T18:38:52.474Z,16.89
2019-05-14T18:41:21.578Z,16.95
2019-05-14T18:43:50.322Z,16.92
2019-05-14T18:46:19.405Z,16.69
2019-05-14T18:48:48.829Z,16.56
2019-05-14T18:51:19.597Z,16.53
2019-05-14T18:53:49.104Z,16.40
2019-05-14T18:56:24.068Z,16.44
2019-05-14T18:58:49.039Z,16.59
2019-05-14T19:01:19.592Z,16.63
2019-05-14T19:03:49.394Z,16.63
2019-05-14T19:06:18.945Z,16.69
2019-05-14T19:08:48.363Z,16.70
2019-05-14T19:11:17.053Z,16.56
2019-05-14T19:13:45.628Z,16.53
2019-05-14T19:16:14.236Z,16.60
2019-05-14T19:18:42.903Z,16.56
2019-05-14T19:21:11.811Z,16.61
2019-05-14T19:23:40.512Z,16.39
2019-05-14T19:26:09.592Z,16.44
2019-05-14T19:28:38.940Z,16.41
2019-05-14T19:31:09.135Z,16.53
2019-05-14T19:33:38.181Z,16.56
2019-05-14T19:36:08.801Z,16.38
2019-05-14T19:38:38.838Z,16.26
2019-05-14T19:41:08.779Z,16.43
2019-05-14T19:43:37.521Z,16.34
2019-05-14T19:46:06.085Z,16.42
2019-05-14T19:48:34.678Z,16.31
2019-05-14T19:51:03.472Z,16.39
2019-05-14T19:53:32.180Z,16.35
2019-05-14T19:56:00.774Z,16.33
2019-05-14T19:58:29.482Z,16.27
2019-05-14T20:00:57.944Z,16.16
2019-05-14T20:03:29.069Z,16.15
2019-05-14T20:05:57.332Z,16.06
2019-05-14T20:08:26.219Z,16.02
2019-05-14T20:10:54.911Z,16.17
2019-05-14T20:13:23.792Z,16.22
2019-05-14T20:15:52.665Z,16.20
2019-05-14T20:18:21.336Z,16.08
2019-05-14T20:20:50.618Z,15.91
2019-05-14T20:23:19.244Z,15.88
2019-05-14T20:25:48.278Z,15.91
2019-05-14T20:28:18.908Z,15.87
2019-05-14T20:30:49.255Z,15.95
2019-05-14T20:33:19.072Z,15.77
2019-05-14T20:35:48.727Z,15.68
2019-05-14T20:38:18.463Z,15.81
2019-05-14T20:40:48.670Z,15.81
2019-05-14T20:43:18.472Z,15.78
2019-05-14T20:45:48.904Z,15.69
2019-05-14T20:48:18.838Z,15.64
2019-05-14T20:50:47.786Z,15.46
2019-05-14T20:53:18.509Z,15.63
2019-05-14T20:55:46.674Z,15.58
2019-05-14T20:58:15.176Z,15.55
2019-05-14T21:00:43.958Z,15.68
2019-05-14T21:03:12.437Z,15.68
2019-05-14T21:05:42.434Z,15.57
2019-05-14T21:08:13.456Z,15.63
2019-05-14T21:10:41.725Z,15.68
2019-05-14T21:13:10.222Z,15.71
2019-05-14T21:15:39.289Z,15.62
2019-05-14T21:18:08.832Z,15.44
2019-05-14T21:20:39.405Z,15.30
2019-05-14T21:23:09.016Z,15.59
2019-05-14T21:25:38.723Z,15.68
2019-05-14T21:28:09.309Z,15.42
2019-05-14T21:30:38.869Z,15.46
2019-05-14T21:33:08.389Z,15.55
2019-05-14T21:35:39.050Z,15.69
2019-05-14T21:38:09.105Z,15.62
2019-05-14T21:40:39.076Z,15.66
2019-05-14T21:43:11.051Z,15.49
2019-05-14T21:45:38.477Z,15.46
2019-05-14T21:48:08.661Z,15.46
2019-05-14T21:50:38.807Z,15.28
2019-05-14T21:53:08.428Z,15.45
2019-05-14T21:55:38.853Z,15.43
2019-05-14T21:58:09.186Z,15.35
2019-05-14T22:00:43.327Z,15.42
2019-05-14T22:03:12.014Z,15.49
2019-05-14T22:05:40.410Z,15.49
2019-05-14T22:08:09.104Z,15.50
2019-05-14T22:10:39.724Z,15.47
2019-05-14T22:13:08.075Z,15.47
2019-05-14T22:15:39.021Z,15.34
2019-05-14T22:18:17.339Z,15.47
2019-05-14T22:20:38.781Z,15.42
2019-05-14T22:23:08.902Z,15.35
2019-05-14T22:25:39.417Z,15.32
2019-05-14T22:28:15.093Z,15.27
2019-05-14T22:30:38.927Z,15.41
2019-05-14T22:33:08.413Z,15.35
2019-05-14T22:35:39.536Z,15.31
2019-05-14T22:38:08.013Z,15.38
2019-05-14T22:40:38.766Z,15.24
2019-05-14T22:43:09.066Z,15.29
2019-05-14T22:45:37.247Z,15.27
2019-05-14T22:48:05.829Z,14.98
2019-05-14T22:50:34.295Z,15.33
2019-05-14T22:53:02.814Z,15.42
2019-05-14T22:55:31.533Z,15.34
2019-05-14T22:58:00.174Z,15.32
2019-05-14T23:00:29.043Z,15.34
2019-05-14T23:02:57.877Z,15.29
2019-05-14T23:05:28.779Z,15.30
2019-05-14T23:07:58.253Z,15.20
2019-05-14T23:10:27.021Z,15.09
2019-05-14T23:12:55.716Z,15.05
2019-05-14T23:15:24.216Z,14.93
2019-05-14T23:17:52.714Z,15.02
2019-05-14T23:20:21.105Z,15.25
2019-05-14T23:22:49.699Z,15.11
2019-05-14T23:25:18.640Z,15.19
2019-05-14T23:27:48.212Z,15.14
2019-05-14T23:30:21.069Z,14.97
2019-05-14T23:32:49.548Z,15.17
2019-05-14T23:35:18.894Z,14.97
2019-05-14T23:37:48.937Z,14.96
2019-05-14T23:40:18.037Z,14.96
2019-05-14T23:42:48.803Z,14.88
2019-05-14T23:45:18.970Z,14.91
2019-05-14T23:47:49.236Z,15.02
2019-05-14T23:50:17.689Z,15.20
2019-05-14T23:52:49.094Z,15.04
2019-05-14T23:55:18.121Z,15.22
2019-05-14T23:57:48.138Z,15.24
